Time;durP1;ratioP1;P1;durP2;ratioP2;P2;SDS_P1;SDS_P2;PMS_P1;PMS_P2;Temp;Humidity;BMP_temperature;BMP_pressure;BME280_temperature;BME280_humidity;BME280_pressure;Samples;Min_cycle;Max_cycle;Signal;HPM_P1;HPM_P2
2023/11/27 00:01:23;;;;;;;26.40;15.50;;;;;;;-0.33;87.65;99738.85;126184;1295;635505;-75
2023/11/27 00:05:26;;;;;;;24.10;14.60;;;;;;;-0.33;87.78;99739.91;127890;1281;128437;-69
2023/11/27 00:09:28;;;;;;;30.60;12.00;;;;;;;-0.30;87.72;99740.23;126720;1290;115329;-74
2023/11/27 00:13:35;;;;;;;24.70;11.60;;;;;;;-0.30;87.44;99740.39;122460;1296;5465185;-75
2023/11/27 00:17:37;;;;;;;23.00;12.90;;;;;;;-0.29;87.16;99738.46;125629;1320;115027;-75
2023/11/27 00:21:38;;;;;;;21.80;11.80;;;;;;;-0.30;87.42;99734.96;125299;1325;114901;-75
2023/11/27 00:25:39;;;;;;;25.30;12.10;;;;;;;-0.27;87.13;99742.12;124786;1311;129840;-73
2023/11/27 00:38:07;;;;;;;25.20;13.30;;;;;;;-0.25;86.77;99741.58;128250;1278;128539;-75
2023/11/27 00:46:13;;;;;;;38.90;21.10;;;;;;;-0.28;86.59;99742.49;122938;1289;5485341;-73
2023/11/27 00:50:15;;;;;;;33.40;18.50;;;;;;;-0.30;86.85;99740.40;125792;1301;114974;-75
2023/11/27 00:58:19;;;;;;;25.00;13.40;;;;;;;-0.38;86.49;99728.77;124522;1331;115171;-75
2023/11/27 01:06:57;;;;;;;24.10;11.10;;;;;;;-0.48;86.32;99729.08;125630;1298;640206;-72
2023/11/27 01:15:02;;;;;;;29.80;16.10;;;;;;;-0.64;86.20;99728.94;127054;1289;115480;-66
2023/11/27 01:23:08;;;;;;;25.20;13.90;;;;;;;-0.77;86.35;99729.98;125503;1321;114974;-66
2023/11/27 01:26:58;;;;;;;;;;;;;;;;;;;;;
2023/11/27 01:35:34;;;;;;;30.70;15.40;;;;;;;-0.94;86.07;99728.07;125329;1307;637525;-70
2023/11/27 01:39:37;;;;;;;35.60;17.40;;;;;;;-1.03;86.15;99729.58;127939;1276;128910;-70
2023/11/27 01:47:40;;;;;;;29.40;16.00;;;;;;;-1.14;86.50;99723.39;123209;1288;5417288;-68
2023/11/27 01:51:34;;;;;;;;;;;;;;;;;;;;;
2023/11/27 02:00:11;;;;;;;23.90;13.60;;;;;;;-1.27;86.56;99718.80;125471;1299;640088;-74
2023/11/27 02:04:01;;;;;;;;;;;;;;;;;;;;;
2023/11/27 02:08:03;;;;;;;22.90;13.10;;;;;;;-1.40;86.23;99725.59;125263;1307;115507;-73
2023/11/27 02:12:07;;;;;;;20.10;12.50;;;;;;;-1.46;86.33;99734.40;120909;1329;5407627;-60
2023/11/27 02:20:34;;;;;;;25.50;12.70;;;;;;;-1.50;86.76;99726.91;125703;1298;636924;-73
2023/11/27 02:28:41;;;;;;;19.50;12.40;;;;;;;-1.59;86.62;99721.40;126615;1308;115389;-75
2023/11/27 02:32:42;;;;;;;24.00;12.60;;;;;;;-1.63;86.50;99723.17;122254;1294;5587185;-61
2023/11/27 02:36:44;;;;;;;26.50;13.20;;;;;;;-1.67;86.70;99721.13;125326;1322;114971;-71
2023/11/27 02:45:11;;;;;;;26.80;11.90;;;;;;;-1.72;87.09;99700.51;125733;1307;635777;-69
2023/11/27 02:53:19;;;;;;;21.60;11.80;;;;;;;-1.87;86.61;99702.20;127421;1288;116180;-72
2023/11/27 02:57:20;;;;;;;24.80;12.00;;;;;;;-1.96;86.88;99693.36;122958;1289;5454851;-69
2023/11/27 03:05:23;;;;;;;22.00;12.30;;;;;;;-2.20;86.26;99675.89;125945;1309;114887;-67
2023/11/27 03:09:25;;;;;;;24.90;13.30;;;;;;;-2.32;86.27;99670.19;125453;1323;114789;-61
2023/11/27 03:25:52;;;;;;;26.40;12.80;;;;;;;-2.63;86.27;99668.83;125595;1299;637449;-61
2023/11/27 03:29:56;;;;;;;27.00;13.70;;;;;;;-2.74;86.27;99671.16;127660;1286;129024;-65
2023/11/27 03:33:58;;;;;;;24.70;13.90;;;;;;;-2.83;86.55;99678.73;126617;1308;114962;-62
2023/11/27 03:50:31;;;;;;;;;;;;;;;;;;;;;
2023/11/27 03:54:32;;;;;;;;;;;;;;;;;;;;;
2023/11/27 04:02:40;;;;;;;29.90;14.50;;;;;;;-3.30;86.55;99672.11;122057;1296;5420532;-67
2023/11/27 04:06:45;;;;;;;25.60;13.30;;;;;;;-3.36;86.90;99675.79;125356;1322;114823;-64
2023/11/27 04:10:44;;;;;;;27.30;13.40;;;;;;;-3.40;86.32;99681.38;125406;1315;115061;-62
2023/11/27 04:14:44;;;;;;;26.20;13.70;;;;;;;-3.45;86.36;99677.21;125434;1322;114842;-63
2023/11/27 04:23:23;;;;;;;26.20;13.60;;;;;;;-3.55;87.05;99677.77;125586;1301;639361;-71
2023/11/27 04:27:25;;;;;;;29.50;14.10;;;;;;;-3.64;86.53;99674.45;127554;1303;128821;-67
2023/11/27 04:31:28;;;;;;;23.60;13.40;;;;;;;-3.71;86.47;99660.16;126402;1306;115974;-67
2023/11/27 04:35:23;;;;;;;24.00;13.20;;;;;;;-3.77;86.65;99660.17;121560;1318;5540166;-62
2023/11/27 04:39:24;;;;;;;29.40;13.50;;;;;;;-3.86;86.44;99656.88;125300;1302;114981;-60
2023/11/27 04:51:54;;;;;;;24.20;13.80;;;;;;;-4.06;86.69;99643.29;127242;1305;129424;-64
2023/11/27 05:03:55;;;;;;;29.70;13.00;;;;;;;-4.20;86.61;99645.03;125164;1311;114960;-72
2023/11/27 05:07:56;;;;;;;31.60;13.80;;;;;;;-4.24;86.47;99648.17;125173;1325;114995;-66
2023/11/27 05:12:00;;;;;;;26.70;12.90;;;;;;;-4.30;87.17;99646.09;124219;1312;128860;-60
2023/11/27 05:24:38;;;;;;;28.60;14.70;;;;;;;-4.43;86.67;99641.04;127601;1284;128877;-61
2023/11/27 05:28:39;;;;;;;29.00;13.80;;;;;;;-4.48;86.92;99642.07;126138;1313;114926;-69
2023/11/27 05:32:41;;;;;;;26.40;14.50;;;;;;;-4.53;86.93;99643.10;121730;1300;5417131;-64
2023/11/27 05:41:15;;;;;;;39.80;21.70;;;;;;;-4.59;86.61;99641.17;125626;1315;638544;-61
2023/11/27 05:45:18;;;;;;;35.40;17.10;;;;;;;-4.64;86.89;99637.00;128048;1297;129593;-61
2023/11/27 05:49:20;;;;;;;28.50;16.50;;;;;;;-4.68;86.83;99642.73;127206;1294;115156;-62
2023/11/27 05:53:23;;;;;;;30.30;16.80;;;;;;;-4.71;87.31;99647.96;122634;1308;5418848;-61
2023/11/27 06:01:06;;;;;;;31.10;15.80;;;;;;;-4.78;86.88;99653.86;124863;1310;114920;-60
2023/11/27 06:04:48;;;;;;;;;;;;;;;;;;;;;
2023/11/27 06:12:45;;;;;;;;;;;;;;;;;;;;;
2023/11/27 06:21:13;;;;;;;43.00;19.30;;;;;;;-4.89;87.07;99653.14;125506;1311;635688;-63
2023/11/27 06:25:15;;;;;;;27.10;16.70;;;;;;;-4.93;87.12;99656.61;127647;1293;128986;-62
2023/11/27 06:29:17;;;;;;;31.60;16.50;;;;;;;-4.95;86.82;99652.60;127297;1287;115533;-62
2023/11/27 06:33:26;;;;;;;32.10;16.00;;;;;;;-4.96;87.08;99651.39;122756;1311;5427244;-63
2023/11/27 06:37:16;;;;;;;33.50;18.30;;;;;;;-4.96;86.84;99658.88;125949;1314;114872;-69
2023/11/27 06:41:17;;;;;;;35.50;17.50;;;;;;;-4.96;86.75;99658.70;125231;1313;115070;-62
2023/11/27 06:49:45;;;;;;;38.90;21.00;;;;;;;-4.91;87.37;99651.39;126438;1295;636101;-69
2023/11/27 06:53:47;;;;;;;54.20;27.50;;;;;;;-4.91;87.10;99652.44;127366;1286;128634;-69
2023/11/27 06:57:51;;;;;;;43.10;21.20;;;;;;;-4.88;87.17;99649.83;125790;1312;114959;-63
2023/11/27 07:01:52;;;;;;;46.00;23.20;;;;;;;-4.85;87.61;99649.84;121425;1300;5446916;-62
2023/11/27 07:10:28;;;;;;;67.10;31.20;;;;;;;-4.74;87.45;99645.34;125396;1303;639959;-64
2023/11/27 07:18:33;;;;;;;69.10;32.70;;;;;;;-4.60;88.09;99641.70;127780;1282;115271;-61
2023/11/27 07:22:34;;;;;;;87.60;38.00;;;;;;;-4.49;87.75;99639.63;122987;1285;5598060;-62
2023/11/27 07:26:41;;;;;;;82.80;38.40;;;;;;;-4.35;87.79;99646.09;126282;1289;114913;-62
2023/11/27 07:30:43;;;;;;;100.50;40.10;;;;;;;-4.20;88.30;99650.10;125687;1301;114974;-63
2023/11/27 07:34:43;;;;;;;99.70;44.60;;;;;;;-4.03;88.35;99651.66;124604;1310;128532;-63
2023/11/27 07:38:48;;;;;;;95.90;44.70;;;;;;;-3.80;88.87;99646.92;124622;1312;115539;-63
2023/11/27 07:42:46;;;;;;;95.70;44.70;;;;;;;-3.55;88.65;99642.69;123903;1316;114844;-63
2023/11/27 07:51:18;;;;;;;101.20;46.90;;;;;;;-3.07;88.64;99639.00;126012;1305;636498;-63
2023/11/27 07:55:20;;;;;;;;;;;;;;;;;;;;;
2023/11/27 07:59:25;;;;;;;106.90;47.40;;;;;;;-2.77;88.65;99625.73;126137;1311;115047;-66
2023/11/27 08:03:31;;;;;;;68.10;32.70;;;;;;;-2.62;88.64;99615.34;121954;1298;5599492;-71
2023/11/27 08:19:59;;;;;;;57.10;30.90;;;;;;;-2.03;89.06;99614.16;126326;1296;636064;-65
2023/11/27 08:23:50;;;;;;;50.00;27.10;;;;;;;-1.86;89.28;99613.12;127480;1302;128844;-64
2023/11/27 08:27:52;;;;;;;44.00;25.50;;;;;;;-1.69;89.27;99610.15;126914;1307;115469;-61
2023/11/27 08:31:52;;;;;;;;;;;;;;;;;;;;;
2023/11/27 08:40:21;;;;;;;54.00;29.70;;;;;;;-1.11;89.50;99599.13;126497;1288;638514;-64
2023/11/27 08:44:16;;;;;;;52.10;29.10;;;;;;;-0.96;89.30;99591.55;127635;1283;129019;-65
2023/11/27 08:48:25;;;;;;;50.50;28.10;;;;;;;-0.83;89.14;99586.12;126739;1285;115358;-63
2023/11/27 08:52:26;;;;;;;64.70;34.30;;;;;;;-0.73;89.01;99583.16;121933;1298;5453466;-63
2023/11/27 08:56:19;;;;;;;60.10;30.80;;;;;;;-0.61;89.26;99583.69;125455;1322;114987;-62
2023/11/27 09:00:20;;;;;;;72.20;33.20;;;;;;;-0.50;89.26;99588.95;124800;1304;115016;-62
2023/11/27 09:04:13;;;;;;;;;;;;;;;;;;;;;
2023/11/27 09:16:43;;;;;;;42.10;23.00;;;;;;;0.13;88.87;99572.96;127968;1282;128862;-69
2023/11/27 09:20:46;;;;;;;44.80;22.40;;;;;;;0.25;88.65;99568.52;126617;1308;115388;-67
2023/11/27 09:24:53;;;;;;;38.30;20.10;;;;;;;0.38;88.42;99561.59;121986;1302;5417374;-70
2023/11/27 09:28:54;;;;;;;28.90;18.00;;;;;;;0.49;88.01;99555.56;124946;1309;115234;-66
2023/11/27 09:32:56;;;;;;;31.40;20.00;;;;;;;0.59;87.75;99552.56;124807;1326;114882;-67
2023/11/27 09:41:22;;;;;;;47.60;25.80;;;;;;;0.84;87.47;99551.86;126329;1294;636535;-67
2023/11/27 09:45:25;;;;;;;37.30;22.50;;;;;;;0.92;87.33;99550.80;128540;1273;129058;-66
2023/11/27 09:53:40;;;;;;;31.90;16.90;;;;;;;1.04;86.54;99545.98;123188;1297;5401462;-67
2023/11/27 09:57:38;;;;;;;35.40;17.00;;;;;;;1.08;86.12;99541.66;126462;1291;116472;-67
2023/11/27 10:01:39;;;;;;;23.90;13.20;;;;;;;1.14;85.80;99533.06;125702;1302;114859;-68
2023/11/27 10:05:43;;;;;;;19.50;12.70;;;;;;;1.19;85.47;99525.92;125347;1323;114917;-67
2023/11/27 10:09:45;;;;;;;25.30;14.70;;;;;;;1.24;85.50;99524.23;124733;1310;129963;-69
2023/11/27 10:13:46;;;;;;;24.30;14.50;;;;;;;1.30;84.78;99521.63;124105;1332;115537;-68
2023/11/27 10:22:13;;;;;;;25.10;13.30;;;;;;;1.41;84.10;99507.45;125367;1303;640321;-66
2023/11/27 10:38:38;;;;;;;27.40;13.10;;;;;;;1.53;82.85;99497.48;127789;1284;127873;-65
2023/11/27 10:42:48;;;;;;;25.00;12.80;;;;;;;1.56;82.77;99492.98;126534;1309;114882;-61
2023/11/27 10:46:53;;;;;;;27.10;12.90;;;;;;;1.68;82.66;99485.83;122014;1300;5407219;-62
2023/11/27 10:50:54;;;;;;;23.10;12.10;;;;;;;1.90;82.72;99481.39;125267;1317;115050;-61
2023/11/27 10:59:18;;;;;;;20.20;9.20;;;;;;;2.43;82.53;99478.31;126314;1305;636052;-60
2023/11/27 11:03:23;;;;;;;16.90;8.20;;;;;;;2.63;81.82;99466.95;128039;1275;127893;-64
2023/11/27 11:11:18;;;;;;;20.10;8.70;;;;;;;3.03;81.23;99448.05;122465;1300;5489319;-63
2023/11/27 11:15:01;;;;;;;11.60;6.60;;;;;;;3.20;80.31;99442.39;125292;1322;114913;-64
2023/11/27 11:19:07;;;;;;;12.60;7.70;;;;;;;3.35;79.97;99434.51;125284;1322;114864;-65
2023/11/27 11:23:09;;;;;;;14.50;6.80;;;;;;;3.49;78.76;99430.85;125350;1323;115127;-63
2023/11/27 11:27:34;;;;;;;13.80;6.30;;;;;;;3.60;78.40;99425.52;125301;1315;130150;-63
2023/11/27 11:35:33;;;;;;;9.10;5.30;;;;;;;3.77;76.44;99408.52;125318;1319;114867;-62
2023/11/27 11:39:34;;;;;;;13.40;7.50;;;;;;;3.74;75.72;99402.59;124311;1316;115031;-65
2023/11/27 11:43:58;;;;;;;11.10;6.30;;;;;;;3.75;76.31;99402.04;124169;1326;115020;-64
2023/11/27 11:47:30;;;;;;;;;;;;;;;;;;;;;
2023/11/27 11:51:35;;;;;;;13.40;5.70;;;;;;;3.81;75.60;99403.23;125277;1287;115486;-64
2023/11/27 11:55:39;;;;;;;13.10;7.20;;;;;;;3.75;74.94;99401.15;125957;1295;115002;-63
2023/11/27 11:59:41;;;;;;;10.90;7.10;;;;;;;3.72;74.96;99398.77;125307;1320;114961;-62
2023/11/27 12:11:59;;;;;;;;;;;;;;;;;;;;;
2023/11/27 12:16:27;;;;;;;14.90;7.60;;;;;;;3.90;75.16;99389.84;127723;1284;127900;-62
2023/11/27 12:20:04;;;;;;;17.90;6.20;;;;;;;3.94;75.35;99382.80;126980;1306;115280;-62
2023/11/27 12:24:07;;;;;;;16.80;7.80;;;;;;;3.92;74.46;99378.30;122537;1294;5415413;-63
2023/11/27 12:27:59;;;;;;;12.90;5.70;;;;;;;3.92;73.78;99376.70;125239;1304;114860;-61
2023/11/27 12:32:00;;;;;;;10.00;5.90;;;;;;;3.86;73.52;99368.42;125283;1321;114877;-62
2023/11/27 12:36:04;;;;;;;12.40;6.20;;;;;;;3.83;72.94;99360.41;124737;1313;114907;-64
2023/11/27 12:44:25;;;;;;;16.00;8.40;;;;;;;3.78;72.94;99357.05;125513;1300;636937;-62
2023/11/27 12:48:31;;;;;;;16.30;9.60;;;;;;;3.81;72.76;99354.14;127584;1301;128905;-64
2023/11/27 12:52:33;;;;;;;14.20;7.10;;;;;;;3.74;72.21;99358.46;127613;1301;115396;-67
2023/11/27 12:56:41;;;;;;;10.70;6.20;;;;;;;3.68;72.26;99349.33;122483;1290;5400413;-64
2023/11/27 13:01:08;;;;;;;9.80;5.40;;;;;;;3.56;71.67;99347.98;125274;1305;115057;-64
2023/11/27 13:09:07;;;;;;;13.70;8.70;;;;;;;3.21;70.96;99341.45;126209;1295;636696;-64
2023/11/27 13:13:10;;;;;;;17.50;9.10;;;;;;;3.04;71.07;99336.19;127455;1303;128326;-63
2023/11/27 13:16:55;;;;;;;16.40;7.50;;;;;;;2.93;71.51;99320.52;125990;1308;115036;-62
2023/11/27 13:20:45;;;;;;;16.40;7.50;;;;;;;2.86;71.30;99313.52;122097;1297;5586255;-62
2023/11/27 13:25:06;;;;;;;11.20;6.50;;;;;;;2.83;71.14;99307.63;125308;1317;114969;-61
2023/11/27 13:28:47;;;;;;;;;;;;;;;;;;;;;
2023/11/27 13:40:59;;;;;;;;;;;;;;;;;;;;;
2023/11/27 13:44:49;;;;;;;16.00;6.80;;;;;;;2.73;71.93;99286.45;127366;1286;114884;-63
2023/11/27 13:48:34;;;;;;;11.60;6.70;;;;;;;2.77;71.92;99286.33;123674;1292;5457239;-63
2023/11/27 13:52:33;;;;;;;17.50;9.00;;;;;;;2.70;71.33;99282.67;125739;1296;114938;-62
2023/11/27 13:56:30;;;;;;;20.90;10.80;;;;;;;2.68;71.22;99284.51;125178;1318;114781;-66
2023/11/27 14:00:34;;;;;;;17.10;7.60;;;;;;;2.67;71.71;99282.96;125624;1315;128817;-59
2023/11/27 14:13:08;;;;;;;15.20;7.90;;;;;;;2.70;71.50;99264.36;125588;1311;636131;-67
2023/11/27 14:17:01;;;;;;;;;;;;;;;;;;;;;
2023/11/27 14:32:48;;;;;;;9.20;5.50;;;;;;;2.10;69.71;99241.45;126062;1310;129785;-64
2023/11/27 14:36:43;;;;;;;;;;;;;;;;;;;;;
2023/11/27 14:40:45;;;;;;;12.00;5.80;;;;;;;1.96;70.21;99233.45;126185;1306;115178;-65
2023/11/27 14:44:46;;;;;;;15.60;5.90;;;;;;;1.88;70.03;99230.73;125563;1301;114838;-66
2023/11/27 14:53:15;;;;;;;13.50;6.40;;;;;;;1.85;71.80;99228.69;126298;1289;636165;-63
2023/11/27 14:57:18;;;;;;;17.90;7.80;;;;;;;1.82;72.23;99220.50;127316;1303;127097;-64
2023/11/27 15:05:28;;;;;;;16.20;7.90;;;;;;;1.71;71.53;99214.16;121897;1298;5425031;-65
2023/11/27 15:17:58;;;;;;;19.30;9.30;;;;;;;1.47;71.55;99202.21;126080;1295;637452;-66
2023/11/27 15:21:57;;;;;;;20.80;9.20;;;;;;;1.38;71.18;99197.20;128716;1273;128978;-60
2023/11/27 15:25:58;;;;;;;23.30;13.00;;;;;;;1.33;71.24;99191.52;128145;1279;115196;-61
2023/11/27 15:30:01;;;;;;;23.30;9.90;;;;;;;1.24;70.91;99186.71;123511;1298;5401992;-62
2023/11/27 15:34:05;;;;;;;20.10;10.10;;;;;;;1.15;71.39;99184.86;125812;1296;114916;-61
2023/11/27 15:37:52;;;;;;;19.60;9.80;;;;;;;1.05;71.32;99186.01;124780;1326;114887;-63
2023/11/27 15:54:19;;;;;;;21.00;10.60;;;;;;;0.79;71.36;99154.39;127318;1295;129193;-61
2023/11/27 15:58:24;;;;;;;22.70;12.20;;;;;;;0.75;71.69;99157.48;126482;1301;115257;-62
2023/11/27 16:02:25;;;;;;;28.20;11.60;;;;;;;0.75;72.06;99158.55;121800;1298;5446006;-63
2023/11/27 16:06:27;;;;;;;28.20;13.60;;;;;;;0.74;72.09;99162.82;125210;1317;114938;-63
2023/11/27 16:10:50;;;;;;;24.20;13.60;;;;;;;0.76;72.44;99166.43;125194;1321;114887;-63
2023/11/27 16:14:23;;;;;;;;;;;;;;;;;;;;;
2023/11/27 16:17:57;;;;;;;33.60;16.50;;;;;;;0.71;71.92;99159.02;124630;1315;128583;-63
2023/11/27 16:21:45;;;;;;;38.20;19.40;;;;;;;0.69;72.06;99148.36;124968;1316;116710;-64
2023/11/27 16:24:54;;;;;;;55.60;25.60;;;;;;;0.67;72.30;99148.41;124573;1321;115287;-64
2023/11/27 16:28:57;;;;;;;52.10;23.40;;;;;;;0.69;72.94;99143.96;124668;1329;114837;-64
2023/11/27 16:36:18;;;;;;;107.30;39.20;;;;;;;0.66;72.47;99122.44;123465;1322;129799;-63
2023/11/27 16:39:54;;;;;;;;;;;;;;;;;;;;;
2023/11/27 16:43:57;;;;;;;116.40;45.60;;;;;;;0.62;72.46;99101.65;124808;1315;114978;-65
2023/11/27 16:47:57;;;;;;;94.40;39.10;;;;;;;0.60;72.82;99091.16;124613;1320;115069;-63
2023/11/27 16:51:56;;;;;;;;;;;;;;;;;;;;;
2023/11/27 16:55:52;;;;;;;100.90;42.00;;;;;;;0.61;73.04;99071.27;125936;1305;636209;-63
2023/11/27 16:59:15;;;;;;;110.80;42.50;;;;;;;0.57;73.10;99071.21;128960;1279;128799;-63
2023/11/27 17:02:30;;;;;;;99.80;46.20;;;;;;;0.53;72.89;99072.55;129511;1267;115177;-64
2023/11/27 17:06:35;;;;;;;94.80;40.10;;;;;;;0.51;73.13;99073.30;129509;1264;114750;-64
2023/11/27 17:11:01;;;;;;;55.30;25.20;;;;;;;0.49;73.23;99069.32;124740;1283;5442367;-63
2023/11/27 17:14:56;;;;;;;37.20;17.80;;;;;;;0.47;73.54;99056.03;126414;1311;115428;-63
2023/11/27 17:18:57;;;;;;;92.40;37.90;;;;;;;0.42;73.38;99055.98;125810;1297;115483;-62
2023/11/27 17:22:58;;;;;;;55.90;25.50;;;;;;;0.40;73.30;99058.51;124534;1328;129934;-62
2023/11/27 17:26:48;;;;;;;;;;;;;;;;;;;;;
2023/11/27 17:31:12;;;;;;;;;;;;;;;;;;;;;
2023/11/27 17:35:16;;;;;;;29.10;16.30;;;;;;;0.35;73.86;99047.73;127661;1277;129059;-63
2023/11/27 17:43:20;;;;;;;26.10;14.90;;;;;;;0.31;74.10;99026.98;123202;1288;5456205;-62
2023/11/27 17:47:18;;;;;;;;;;;;;;;;;;;;;
2023/11/27 17:55:22;;;;;;;31.90;15.40;;;;;;;0.28;74.36;99002.48;125281;1319;114913;-64
2023/11/27 17:59:15;;;;;;;;;;;;;;;;;;;;;
2023/11/27 18:07:50;;;;;;;38.10;20.40;;;;;;;0.28;74.86;98976.85;125323;1306;637356;-62
2023/11/27 18:11:52;;;;;;;34.60;18.90;;;;;;;0.24;75.07;98965.02;127012;1297;129132;-64
2023/11/27 18:15:43;;;;;;;42.70;20.80;;;;;;;0.22;74.64;98968.08;125789;1317;115324;-62
2023/11/27 18:19:44;;;;;;;33.20;18.20;;;;;;;0.17;74.83;98971.35;122049;1298;5434477;-63
2023/11/27 18:28:08;;;;;;;50.90;26.60;;;;;;;0.14;75.17;98960.55;126192;1295;636740;-65
2023/11/27 18:32:13;;;;;;;43.10;18.60;;;;;;;0.12;75.65;98954.98;128734;1272;128893;-64
2023/11/27 18:40:17;;;;;;;36.40;17.00;;;;;;;0.09;75.49;98937.20;122697;1289;5656576;-62
2023/11/27 18:44:18;;;;;;;32.10;16.50;;;;;;;0.07;75.84;98930.92;125521;1319;114999;-62
2023/11/27 18:48:19;;;;;;;29.70;13.90;;;;;;;0.05;75.79;98927.13;124717;1311;114863;-62
2023/11/27 18:52:12;;;;;;;;;;;;;;;;;;;;;
2023/11/27 19:00:28;;;;;;;45.40;20.30;;;;;;;-0.01;76.14;98911.30;125526;1300;636304;-65
2023/11/27 19:04:33;;;;;;;89.80;46.20;;;;;;;-0.05;76.13;98908.27;127351;1286;129393;-65
2023/11/27 19:07:53;;;;;;;;;;;;;;;;;;;;;
2023/11/27 19:11:57;;;;;;;49.50;25.70;;;;;;;-0.03;76.56;98896.43;127972;1280;114930;-66
2023/11/27 19:16:01;;;;;;;50.40;26.80;;;;;;;0.03;76.69;98896.11;122578;1295;114878;-62
2023/11/27 19:20:02;;;;;;;69.40;30.00;;;;;;;0.07;76.85;98894.06;125954;1295;114922;-64
2023/11/27 19:28:26;;;;;;;57.20;30.00;;;;;;;0.14;77.15;98888.93;125992;1299;635957;-63
2023/11/27 19:32:27;;;;;;;;;;;;;;;;;;;;;
2023/11/27 19:36:31;;;;;;;45.10;21.50;;;;;;;0.16;77.06;98881.00;127868;1299;115477;-64
2023/11/27 19:40:35;;;;;;;46.10;24.00;;;;;;;0.16;77.46;98878.70;123285;1286;5448550;-64
2023/11/27 19:44:36;;;;;;;49.00;26.20;;;;;;;0.16;77.35;98879.75;126120;1295;115016;-65
2023/11/27 19:52:49;;;;;;;;;;;;;;;;;;;;;
2023/11/27 20:00:57;;;;;;;53.80;25.30;;;;;;;0.19;77.65;98848.05;127232;1297;115420;-64
2023/11/27 20:13:38;;;;;;;46.80;24.70;;;;;;;0.18;77.62;98835.98;125613;1307;636796;-65
2023/11/27 20:17:39;;;;;;;50.00;25.40;;;;;;;0.18;77.73;98835.80;128447;1293;128459;-62
2023/11/27 20:21:23;;;;;;;49.80;24.40;;;;;;;0.20;78.34;98826.61;127871;1284;115226;-63
2023/11/27 20:25:06;;;;;;;49.80;24.40;;;;;;;0.18;77.92;98825.09;123397;1285;5939530;-60
2023/11/27 20:28:52;;;;;;;65.50;30.10;;;;;;;0.20;77.81;98822.93;127292;1284;114850;-63
2023/11/27 20:32:54;;;;;;;55.10;25.10;;;;;;;0.19;78.09;98817.67;127025;1297;115163;-63
2023/11/27 20:36:37;;;;;;;48.40;22.80;;;;;;;0.17;77.87;98807.55;126093;1305;115002;-62
2023/11/27 20:39:45;;;;;;;46.50;22.10;;;;;;;0.15;77.97;98800.60;126077;1311;129556;-63
2023/11/27 20:43:36;;;;;;;;;;;;;;;;;;;;;
2023/11/27 20:46:45;;;;;;;49.30;26.50;;;;;;;0.09;78.22;98788.31;125611;1311;114882;-66
2023/11/27 20:50:47;;;;;;;47.40;25.00;;;;;;;0.07;78.23;98788.75;125476;1301;114962;-64
2023/11/27 20:54:19;;;;;;;160.30;79.20;;;;;;;0.04;78.27;98783.56;125686;1315;114937;-64
2023/11/27 20:58:01;;;;;;;;;;;;;;;;;;;;;
2023/11/27 21:01:37;;;;;;;49.90;25.70;;;;;;;-0.02;78.45;98784.27;125595;1299;115479;-63
2023/11/27 21:05:39;;;;;;;44.20;23.80;;;;;;;-0.03;78.40;98779.20;126310;1299;114885;-61
2023/11/27 21:13:41;;;;;;;51.40;25.90;;;;;;;-0.15;78.69;98766.95;124731;1320;114932;-62
2023/11/27 21:17:32;;;;;;;;;;;;;;;;;;;;;
2023/11/27 21:25:58;;;;;;;51.80;26.80;;;;;;;-0.17;78.98;98754.21;128793;1273;128733;-61
2023/11/27 21:30:08;;;;;;;63.50;34.20;;;;;;;-0.18;79.13;98745.98;128636;1276;115448;-63
2023/11/27 21:34:11;;;;;;;53.80;26.50;;;;;;;-0.16;79.57;98746.29;123635;1291;5587182;-61
2023/11/27 21:38:13;;;;;;;59.00;29.50;;;;;;;-0.19;79.66;98740.92;126452;1294;114929;-62
2023/11/27 21:42:14;;;;;;;64.80;29.90;;;;;;;-0.18;79.47;98740.55;126441;1309;114980;-62
2023/11/27 21:46:16;;;;;;;62.50;28.00;;;;;;;-0.16;79.82;98738.73;126323;1309;115417;-64
2023/11/27 21:50:15;;;;;;;60.50;31.10;;;;;;;-0.15;80.32;98731.14;125701;1306;128276;-62
2023/11/27 22:02:41;;;;;;;68.30;33.80;;;;;;;-0.14;80.85;98716.55;126272;1293;635139;-63
2023/11/27 22:06:45;;;;;;;59.80;31.50;;;;;;;-0.15;81.24;98711.49;127490;1303;127962;-64
2023/11/27 22:10:52;;;;;;;68.40;33.20;;;;;;;-0.17;81.55;98706.65;126399;1291;116411;-62
2023/11/27 22:14:52;;;;;;;65.70;31.80;;;;;;;-0.17;81.85;98704.02;121516;1295;5462542;-62
2023/11/27 22:22:54;;;;;;;56.50;28.00;;;;;;;-0.20;82.27;98691.30;124972;1324;114982;-62
2023/11/27 22:26:46;;;;;;;72.00;33.80;;;;;;;-0.24;82.25;98688.79;124119;1330;114925;-64
2023/11/27 22:30:48;;;;;;;64.90;32.20;;;;;;;-0.28;82.53;98683.34;123927;1312;129861;-63
2023/11/27 22:39:12;;;;;;;64.10;34.10;;;;;;;-0.31;83.01;98668.68;126282;1297;636215;-63
2023/11/27 22:43:15;;;;;;;;;;;;;;;;;;;;;
2023/11/27 22:47:19;;;;;;;50.20;25.60;;;;;;;-0.39;83.07;98645.93;127926;1281;114973;-63
2023/11/27 22:51:21;;;;;;;80.10;36.00;;;;;;;-0.41;83.08;98640.38;123926;1283;5369683;-63
2023/11/27 22:55:22;;;;;;;66.90;33.20;;;;;;;-0.42;83.23;98637.27;125849;1310;115205;-64
2023/11/27 22:59:24;;;;;;;58.90;29.70;;;;;;;-0.47;83.34;98632.88;125343;1322;114981;-63
2023/11/27 23:07:59;;;;;;;76.80;40.00;;;;;;;-0.51;83.65;98623.53;125566;1297;638947;-63
2023/11/27 23:12:02;;;;;;;74.20;35.30;;;;;;;-0.55;83.88;98615.41;126797;1289;128753;-62
2023/11/27 23:19:47;;;;;;;;;;;;;;;;;;;;;
2023/11/27 23:23:49;;;;;;;73.70;37.20;;;;;;;-0.68;84.44;98595.33;124561;1302;114990;-62
2023/11/27 23:27:51;;;;;;;52.80;28.30;;;;;;;-0.70;84.47;98589.75;124171;1313;115076;-61
2023/11/27 23:44:20;;;;;;;83.60;41.60;;;;;;;-0.73;85.10;98565.48;128623;1275;128820;-62
2023/11/27 23:48:22;;;;;;;86.90;41.10;;;;;;;-0.73;85.20;98566.36;127065;1287;115306;-62
2023/11/27 23:52:28;;;;;;;85.50;40.60;;;;;;;-0.76;85.35;98561.71;123209;1290;5437642;-61
2023/11/27 23:56:29;;;;;;;88.70;42.80;;;;;;;-0.79;85.41;98556.03;125303;1299;114846;-62
